Penha, Brazil
Current Conditions -  °F | °C
As of 11:00 AM on Wednesday 26 Nov 2014 (Local Time) from SBNF Reporting Station
Broken Clouds Broken Clouds  
Wind Chill: 79°   Ceiling: 2000
Heat Index: 82°   Visibility: 5mi
Dew Point: 75°   Wind: 6mph
Humidity: 89%   Direction: 150°SSE
Pressure: 29.74"   Gusts: NA
Location:  26.77°S, 48.65°W
Report Text: SBNF 261300Z 15005KT 8000 SCT006 BKN020 26/24 Q1007
Loading
Personal Weather Stations






























Interactive Weather Map New forecast layout! Learn more

10-Day Weather Forecast

Advertisements
Track Severe Weather on mobile